createdAt,value
2022-08-21T00:00:26.836Z,18.81
2022-08-21T00:03:09.789Z,18.79
2022-08-21T00:05:46.812Z,18.72
2022-08-21T00:08:13.875Z,18.69
2022-08-21T00:10:43.294Z,18.71
2022-08-21T00:13:11.519Z,18.76
2022-08-21T00:15:39.696Z,18.70
2022-08-21T00:18:08.619Z,18.64
2022-08-21T00:20:36.207Z,18.58
2022-08-21T00:23:02.992Z,18.69
2022-08-21T00:25:30.037Z,18.66
2022-08-21T00:27:57.620Z,18.72
2022-08-21T00:30:26.790Z,18.75
2022-08-21T00:32:55.110Z,18.76
2022-08-21T00:35:36.055Z,18.74
2022-08-21T00:38:03.610Z,18.75
2022-08-21T00:40:37.825Z,18.73
2022-08-21T00:43:08.988Z,18.70
2022-08-21T00:45:36.044Z,18.67
2022-08-21T00:48:03.311Z,18.57
2022-08-21T00:50:33.424Z,18.64
2022-08-21T00:53:02.352Z,18.57
2022-08-21T00:55:31.148Z,18.55
2022-08-21T00:58:01.550Z,18.57
2022-08-21T01:00:32.548Z,18.58
2022-08-21T01:03:02.166Z,18.59
2022-08-21T01:05:34.113Z,18.67
2022-08-21T01:08:00.995Z,18.82
2022-08-21T01:10:27.736Z,18.94
2022-08-21T01:12:56.692Z,19.01
2022-08-21T01:15:28.025Z,19.10
2022-08-21T01:17:54.885Z,19.17
2022-08-21T01:20:21.607Z,19.21
2022-08-21T01:22:48.374Z,19.09
2022-08-21T01:25:17.143Z,18.89
2022-08-21T01:27:47.072Z,18.69
2022-08-21T01:30:20.720Z,18.77
2022-08-21T01:32:48.886Z,18.84
2022-08-21T01:35:17.641Z,18.50
2022-08-21T01:37:45.601Z,18.52
2022-08-21T01:40:13.575Z,18.48
2022-08-21T01:42:46.196Z,18.28
2022-08-21T01:45:15.265Z,18.34
2022-08-21T01:47:42.000Z,18.47
2022-08-21T01:50:11.912Z,18.57
2022-08-21T01:52:38.538Z,18.55
2022-08-21T01:55:07.916Z,18.59
2022-08-21T01:57:35.142Z,18.66
2022-08-21T02:00:02.372Z,18.71
2022-08-21T02:02:39.780Z,18.67
2022-08-21T02:05:07.337Z,18.67
2022-08-21T02:07:39.243Z,18.57
2022-08-21T02:10:08.017Z,18.46
2022-08-21T02:12:35.062Z,18.34
2022-08-21T02:15:01.738Z,18.20
2022-08-21T02:17:28.399Z,18.29
2022-08-21T02:19:55.205Z,18.34
2022-08-21T02:22:21.865Z,18.27
2022-08-21T02:24:53.795Z,18.33
2022-08-21T02:27:26.858Z,18.38
2022-08-21T02:29:58.193Z,18.39
2022-08-21T02:32:25.406Z,18.39
2022-08-21T02:34:53.174Z,18.40
2022-08-21T02:37:19.978Z,18.40
2022-08-21T02:39:46.755Z,18.36
2022-08-21T02:42:13.427Z,18.39
2022-08-21T02:44:40.117Z,18.32
2022-08-21T02:47:06.848Z,18.37
2022-08-21T02:49:33.487Z,18.32
2022-08-21T02:52:02.617Z,18.26
2022-08-21T02:54:29.270Z,18.21
2022-08-21T02:56:55.858Z,18.09
2022-08-21T02:59:22.560Z,18.02
2022-08-21T03:01:49.204Z,18.10
2022-08-21T03:04:16.105Z,18.15
2022-08-21T03:06:42.780Z,18.14
2022-08-21T03:09:09.385Z,18.17
2022-08-21T03:11:36.715Z,18.13
2022-08-21T03:14:03.507Z,18.19
2022-08-21T03:16:34.742Z,18.08
2022-08-21T03:19:02.046Z,17.93
2022-08-21T03:21:29.592Z,17.87
2022-08-21T03:23:56.543Z,17.83
2022-08-21T03:26:23.224Z,17.82
2022-08-21T03:28:51.715Z,17.79
2022-08-21T03:31:18.631Z,17.84
2022-08-21T03:33:45.529Z,17.80
2022-08-21T03:36:12.127Z,17.83
2022-08-21T03:38:39.003Z,17.82
2022-08-21T03:41:08.145Z,17.79
2022-08-21T03:43:35.519Z,17.71
2022-08-21T03:46:04.310Z,17.63
2022-08-21T03:48:31.101Z,17.66
2022-08-21T03:50:57.882Z,17.65
2022-08-21T03:53:25.511Z,17.63
2022-08-21T03:55:53.760Z,17.62
2022-08-21T03:58:24.049Z,17.59
2022-08-21T04:00:53.281Z,17.57
2022-08-21T04:03:20.793Z,17.49
2022-08-21T04:05:47.799Z,17.46
2022-08-21T04:08:15.925Z,17.50
2022-08-21T04:10:44.707Z,17.49
2022-08-21T04:13:12.408Z,17.51
2022-08-21T04:15:39.571Z,17.52
2022-08-21T04:18:06.481Z,17.47
2022-08-21T04:20:34.036Z,17.44
2022-08-21T04:23:01.320Z,17.41
2022-08-21T04:25:28.336Z,17.36
2022-08-21T04:27:55.274Z,17.45
2022-08-21T04:30:28.261Z,17.45
2022-08-21T04:32:59.576Z,17.51
2022-08-21T04:35:28.336Z,17.54
2022-08-21T04:37:55.087Z,17.65
2022-08-21T04:40:23.320Z,17.60
2022-08-21T04:42:54.292Z,17.64
2022-08-21T04:45:38.868Z,17.64
2022-08-21T04:48:13.743Z,17.58
2022-08-21T04:50:50.790Z,17.64
2022-08-21T04:53:33.017Z,17.63
2022-08-21T04:56:05.471Z,17.69
2022-08-21T04:58:34.462Z,17.73
2022-08-21T05:01:02.696Z,17.76
2022-08-21T05:03:32.016Z,17.81
2022-08-21T05:05:59.171Z,17.83
2022-08-21T05:08:28.168Z,17.89
2022-08-21T05:10:59.756Z,18.01
2022-08-21T05:13:27.634Z,18.08
2022-08-21T05:15:57.440Z,18.15
2022-08-21T05:18:24.811Z,18.17
2022-08-21T05:20:51.741Z,18.15
2022-08-21T05:23:18.531Z,18.23
2022-08-21T05:25:45.145Z,18.29
2022-08-21T05:28:13.553Z,18.37
2022-08-21T05:30:40.334Z,18.52
2022-08-21T05:33:07.794Z,18.55
2022-08-21T05:35:35.438Z,18.57
2022-08-21T05:38:02.830Z,18.68
2022-08-21T05:40:29.890Z,18.29
2022-08-21T05:42:57.305Z,18.04
2022-08-21T05:45:42.320Z,17.97
2022-08-21T05:48:24.116Z,17.94
2022-08-21T05:50:52.672Z,17.89
2022-08-21T05:53:21.184Z,18.01
2022-08-21T05:55:49.039Z,18.28
2022-08-21T05:58:18.907Z,18.53
2022-08-21T06:00:48.185Z,18.68
2022-08-21T06:03:18.506Z,18.80
2022-08-21T06:05:46.433Z,19.03
2022-08-21T06:08:14.567Z,19.18
2022-08-21T06:10:43.445Z,19.31
2022-08-21T06:13:10.135Z,19.45
2022-08-21T06:15:36.808Z,19.57
2022-08-21T06:18:03.738Z,19.62
2022-08-21T06:20:30.866Z,19.74
2022-08-21T06:22:57.729Z,19.79
2022-08-21T06:25:25.476Z,20.02
2022-08-21T06:27:52.422Z,20.08
2022-08-21T06:30:19.898Z,20.18
2022-08-21T06:32:46.575Z,20.23
2022-08-21T06:35:13.225Z,20.26
2022-08-21T06:37:39.848Z,20.18
2022-08-21T06:40:12.564Z,20.16
2022-08-21T06:42:41.369Z,19.94
2022-08-21T06:45:10.384Z,20.09
2022-08-21T06:47:37.133Z,19.99
2022-08-21T06:50:04.564Z,19.96
2022-08-21T06:52:32.950Z,20.04
2022-08-21T06:55:02.153Z,20.15
2022-08-21T06:57:28.823Z,20.30
2022-08-21T06:59:55.597Z,20.31
2022-08-21T07:02:22.476Z,20.18
2022-08-21T07:04:52.019Z,20.28
2022-08-21T07:07:18.826Z,20.66
2022-08-21T07:09:45.414Z,20.89
2022-08-21T07:12:15.989Z,20.88
2022-08-21T07:14:43.210Z,20.60
2022-08-21T07:17:10.398Z,20.61
2022-08-21T07:19:37.067Z,20.46
2022-08-21T07:22:03.898Z,20.50
2022-08-21T07:24:32.491Z,20.63
2022-08-21T07:26:59.111Z,20.77
2022-08-21T07:29:25.736Z,20.84
2022-08-21T07:31:52.686Z,20.82
2022-08-21T07:34:19.422Z,21.04
2022-08-21T07:36:48.215Z,21.08
2022-08-21T07:39:16.045Z,21.06
2022-08-21T07:41:45.359Z,21.08
2022-08-21T07:44:15.095Z,21.16
2022-08-21T07:46:41.961Z,21.22
2022-08-21T07:49:08.659Z,21.09
2022-08-21T07:51:35.875Z,21.12
2022-08-21T07:54:02.884Z,21.20
2022-08-21T07:56:31.794Z,21.34
2022-08-21T07:58:58.909Z,20.99
2022-08-21T08:01:26.212Z,20.80
2022-08-21T08:03:56.307Z,20.86
2022-08-21T08:06:24.163Z,21.04
2022-08-21T08:08:53.136Z,21.08
2022-08-21T08:11:22.022Z,21.25
2022-08-21T08:13:51.325Z,21.18
2022-08-21T08:16:18.186Z,21.04
2022-08-21T08:18:45.700Z,21.22
2022-08-21T08:21:16.644Z,21.32
2022-08-21T08:23:45.072Z,21.43
2022-08-21T08:26:19.196Z,21.46
2022-08-21T08:28:47.920Z,21.47
2022-08-21T08:31:15.071Z,21.31
2022-08-21T08:33:41.766Z,21.20
2022-08-21T08:36:15.779Z,21.27
2022-08-21T08:38:42.902Z,21.33
2022-08-21T08:41:23.730Z,21.31
2022-08-21T08:43:57.206Z,21.29
2022-08-21T08:46:57.498Z,21.03
2022-08-21T08:49:35.782Z,20.81
2022-08-21T08:52:21.257Z,21.02
2022-08-21T08:55:03.311Z,21.47
2022-08-21T08:57:31.410Z,21.47
2022-08-21T09:00:01.181Z,21.16
2022-08-21T09:02:29.859Z,21.20
2022-08-21T09:04:57.562Z,21.39
2022-08-21T09:07:30.103Z,21.53
2022-08-21T09:10:22.051Z,21.21
2022-08-21T09:13:38.692Z,21.27
2022-08-21T09:16:30.914Z,21.30
2022-08-21T09:19:00.217Z,21.47
2022-08-21T09:21:53.757Z,21.78
2022-08-21T09:24:30.517Z,22.00
2022-08-21T09:27:09.343Z,22.03
2022-08-21T09:29:40.517Z,21.80
2022-08-21T09:32:20.847Z,21.88
2022-08-21T09:35:06.616Z,22.04
2022-08-21T09:37:36.444Z,22.05
2022-08-21T09:40:16.458Z,22.30
2022-08-21T09:42:43.222Z,22.36
2022-08-21T09:45:16.423Z,22.54
2022-08-21T09:47:44.829Z,22.75
2022-08-21T09:50:16.596Z,22.58
2022-08-21T09:52:52.937Z,22.56
2022-08-21T09:55:46.352Z,22.47
2022-08-21T09:58:13.258Z,21.90
2022-08-21T10:00:39.948Z,22.25
2022-08-21T10:03:19.711Z,22.42
2022-08-21T10:05:54.348Z,22.43
2022-08-21T10:08:27.426Z,21.82
2022-08-21T10:11:10.355Z,21.97
2022-08-21T10:14:12.119Z,22.30
2022-08-21T10:16:51.378Z,22.39
2022-08-21T10:19:36.084Z,22.53
2022-08-21T10:22:35.001Z,22.12
2022-08-21T10:25:13.947Z,22.37
2022-08-21T10:27:46.825Z,22.64
2022-08-21T10:30:20.451Z,22.52
2022-08-21T10:33:15.818Z,22.65
2022-08-21T10:36:00.930Z,22.59
2022-08-21T10:38:55.358Z,22.77
2022-08-21T10:42:07.624Z,22.59
2022-08-21T10:44:44.787Z,22.67
2022-08-21T10:47:21.244Z,22.66
2022-08-21T10:50:00.362Z,22.29
2022-08-21T10:52:44.436Z,21.57
2022-08-21T10:55:17.354Z,21.78
2022-08-21T10:58:02.033Z,21.85
2022-08-21T11:00:54.739Z,22.25
2022-08-21T11:03:31.014Z,22.43
2022-08-21T11:06:14.178Z,22.53
2022-08-21T11:09:05.323Z,21.76
2022-08-21T11:11:43.842Z,22.14
2022-08-21T11:14:50.312Z,22.30
2022-08-21T11:17:44.616Z,22.87
2022-08-21T11:20:29.236Z,23.26
2022-08-21T11:23:36.597Z,23.30
2022-08-21T11:26:10.910Z,22.44
2022-08-21T11:28:55.418Z,23.06
2022-08-21T11:31:35.921Z,23.13
2022-08-21T11:34:31.452Z,23.33
2022-08-21T11:37:02.602Z,23.29
2022-08-21T11:39:51.651Z,22.74
2022-08-21T11:42:25.033Z,22.36
2022-08-21T11:45:17.886Z,22.30
2022-08-21T11:48:11.878Z,22.29
2022-08-21T11:50:40.260Z,22.29
2022-08-21T11:53:29.672Z,23.06
2022-08-21T11:56:13.405Z,23.63
2022-08-21T11:58:47.353Z,23.90
2022-08-21T12:01:20.056Z,23.89
2022-08-21T12:04:01.449Z,24.15
2022-08-21T12:06:30.951Z,23.58
2022-08-21T12:09:05.035Z,22.96
2022-08-21T12:11:40.709Z,23.50
2022-08-21T12:14:22.789Z,22.96
2022-08-21T12:16:50.720Z,23.35
2022-08-21T12:19:30.863Z,24.01
2022-08-21T12:22:06.829Z,24.48
2022-08-21T12:24:37.014Z,24.69
2022-08-21T12:27:45.144Z,24.78
2022-08-21T12:30:30.078Z,24.51
2022-08-21T12:33:03.923Z,24.35
2022-08-21T12:35:44.572Z,23.98
2022-08-21T12:38:40.579Z,23.62
2022-08-21T12:41:32.386Z,23.77
2022-08-21T12:44:12.280Z,23.87
2022-08-21T12:46:47.996Z,24.39
2022-08-21T12:49:26.710Z,24.74
2022-08-21T12:52:01.630Z,24.23
2022-08-21T12:54:34.000Z,24.45
2022-08-21T12:57:06.990Z,23.59
2022-08-21T12:59:40.232Z,23.84
2022-08-21T13:02:19.608Z,23.88
2022-08-21T13:04:48.363Z,23.89
2022-08-21T13:07:23.244Z,24.47
2022-08-21T13:10:35.137Z,24.57
2022-08-21T13:13:12.811Z,24.61
2022-08-21T13:15:57.719Z,24.17
2022-08-21T13:18:30.609Z,24.11
2022-08-21T13:21:14.727Z,24.69
2022-08-21T13:23:42.289Z,24.93
2022-08-21T13:26:18.894Z,24.87
2022-08-21T13:28:50.484Z,24.46
2022-08-21T13:31:26.015Z,23.98
2022-08-21T13:33:56.380Z,23.86
2022-08-21T13:36:37.329Z,24.40
2022-08-21T13:39:15.980Z,23.88
2022-08-21T13:41:45.439Z,24.48
2022-08-21T13:44:24.890Z,24.10
2022-08-21T13:46:56.176Z,24.52
2022-08-21T13:49:38.284Z,24.40
2022-08-21T13:52:28.342Z,24.23
2022-08-21T13:55:01.230Z,24.88
2022-08-21T13:57:43.611Z,25.07
2022-08-21T14:00:20.577Z,25.19
2022-08-21T14:02:54.233Z,25.57
2022-08-21T14:05:29.959Z,25.25
2022-08-21T14:08:10.544Z,25.41
2022-08-21T14:10:53.745Z,24.98
2022-08-21T14:13:28.677Z,25.17
2022-08-21T14:15:59.458Z,25.27
2022-08-21T14:18:27.018Z,25.22
2022-08-21T14:21:08.561Z,24.29
2022-08-21T14:23:35.248Z,24.21
2022-08-21T14:26:05.339Z,24.82
2022-08-21T14:28:40.758Z,24.28
2022-08-21T14:31:22.218Z,24.43
2022-08-21T14:33:49.351Z,24.12
2022-08-21T14:36:18.456Z,24.25
2022-08-21T14:38:45.228Z,23.69
2022-08-21T14:41:29.612Z,24.38
2022-08-21T14:44:06.311Z,24.72
2022-08-21T14:46:51.639Z,24.74
2022-08-21T14:49:31.579Z,24.73
2022-08-21T14:52:00.271Z,24.66
2022-08-21T14:54:38.226Z,24.91
2022-08-21T14:57:09.906Z,24.39
2022-08-21T14:59:37.830Z,24.79
2022-08-21T15:02:05.354Z,24.99
2022-08-21T15:04:38.177Z,24.11
2022-08-21T15:07:09.495Z,24.58
2022-08-21T15:09:39.501Z,24.73
2022-08-21T15:12:11.270Z,25.03
2022-08-21T15:14:46.431Z,24.53
2022-08-21T15:17:13.309Z,23.50
2022-08-21T15:19:40.601Z,24.07
2022-08-21T15:22:15.362Z,24.24
2022-08-21T15:24:49.664Z,24.80
2022-08-21T15:27:17.892Z,24.81
2022-08-21T15:29:46.931Z,24.57
2022-08-21T15:32:28.210Z,24.32
2022-08-21T15:34:56.217Z,24.45
2022-08-21T15:37:25.413Z,24.65
2022-08-21T15:39:53.747Z,24.00
2022-08-21T15:42:22.422Z,24.31
2022-08-21T15:44:51.861Z,23.51
2022-08-21T15:47:33.009Z,24.69
2022-08-21T15:50:00.046Z,24.57
2022-08-21T15:52:27.217Z,24.66
2022-08-21T15:54:54.341Z,24.36
2022-08-21T15:57:25.161Z,24.61
2022-08-21T15:59:55.032Z,24.79
2022-08-21T16:02:28.099Z,24.18
2022-08-21T16:04:55.278Z,24.51
2022-08-21T16:07:21.920Z,24.73
2022-08-21T16:09:48.650Z,24.70
2022-08-21T16:12:25.403Z,24.78
2022-08-21T16:14:53.480Z,24.25
2022-08-21T16:17:21.885Z,23.91
2022-08-21T16:19:48.678Z,24.08
2022-08-21T16:22:15.276Z,24.37
2022-08-21T16:24:49.286Z,24.29
2022-08-21T16:27:27.994Z,24.51
2022-08-21T16:29:56.758Z,24.16
2022-08-21T16:32:24.050Z,23.99
2022-08-21T16:34:58.534Z,24.63
2022-08-21T16:37:33.945Z,24.78
2022-08-21T16:40:03.047Z,24.92
2022-08-21T16:42:39.219Z,24.01
2022-08-21T16:45:08.937Z,24.77
2022-08-21T16:47:38.969Z,24.74
2022-08-21T16:50:17.555Z,25.14
2022-08-21T16:52:44.355Z,25.61
2022-08-21T16:55:11.061Z,25.67
2022-08-21T16:57:43.410Z,25.33
2022-08-21T17:00:14.343Z,25.55
2022-08-21T17:02:45.236Z,25.53
2022-08-21T17:05:13.955Z,25.10
2022-08-21T17:07:45.660Z,24.60
2022-08-21T17:10:18.703Z,25.41
2022-08-21T17:12:55.800Z,25.91
2022-08-21T17:15:29.529Z,25.77
2022-08-21T17:17:56.654Z,25.80
2022-08-21T17:20:23.495Z,26.10
2022-08-21T17:22:50.161Z,26.11
2022-08-21T17:25:16.999Z,26.23
2022-08-21T17:27:47.423Z,26.02
2022-08-21T17:30:15.669Z,26.03
2022-08-21T17:32:47.649Z,25.92
2022-08-21T17:35:14.622Z,26.01
2022-08-21T17:37:42.156Z,25.64
2022-08-21T17:40:13.092Z,24.81
2022-08-21T17:42:42.268Z,24.52
2022-08-21T17:45:15.529Z,24.41
2022-08-21T17:47:42.718Z,24.48
2022-08-21T17:50:11.347Z,24.46
2022-08-21T17:52:48.640Z,24.35
2022-08-21T17:55:20.338Z,24.27
2022-08-21T17:57:49.570Z,24.14
2022-08-21T18:00:19.175Z,23.71
2022-08-21T18:02:51.241Z,23.67
2022-08-21T18:05:21.351Z,23.28
2022-08-21T18:07:51.387Z,22.98
2022-08-21T18:10:18.096Z,23.25
2022-08-21T18:12:45.661Z,23.52
2022-08-21T18:15:15.684Z,23.54
2022-08-21T18:17:47.810Z,23.59
2022-08-21T18:20:17.045Z,23.66
2022-08-21T18:22:45.850Z,23.40
2022-08-21T18:25:16.426Z,23.25
2022-08-21T18:27:48.119Z,22.77
2022-08-21T18:30:19.105Z,22.78
2022-08-21T18:32:48.918Z,22.79
2022-08-21T18:35:16.521Z,22.67
2022-08-21T18:37:43.478Z,22.59
2022-08-21T18:40:10.872Z,22.47
2022-08-21T18:42:41.223Z,22.46
2022-08-21T18:45:14.114Z,22.22
2022-08-21T18:47:59.034Z,22.35
2022-08-21T18:50:28.825Z,22.25
2022-08-21T18:52:55.689Z,22.29
2022-08-21T18:55:24.580Z,22.28
2022-08-21T18:57:51.934Z,22.23
2022-08-21T19:00:22.112Z,22.26
2022-08-21T19:02:49.316Z,22.29
2022-08-21T19:05:19.381Z,21.90
2022-08-21T19:07:46.866Z,22.00
2022-08-21T19:10:27.891Z,21.66
2022-08-21T19:12:57.231Z,21.84
2022-08-21T19:15:36.478Z,21.86
2022-08-21T19:18:09.845Z,21.86
2022-08-21T19:20:47.387Z,21.62
2022-08-21T19:23:17.088Z,21.22
2022-08-21T19:25:47.071Z,21.57
2022-08-21T19:28:24.196Z,21.54
2022-08-21T19:31:24.462Z,21.35
2022-08-21T19:34:16.747Z,21.33
2022-08-21T19:36:46.383Z,21.30
2022-08-21T19:39:14.885Z,21.33
2022-08-21T19:41:46.115Z,21.51
2022-08-21T19:44:22.890Z,21.59
2022-08-21T19:46:57.895Z,21.51
2022-08-21T19:49:34.289Z,21.41
2022-08-21T19:52:02.164Z,21.36
2022-08-21T19:54:40.212Z,21.14
2022-08-21T19:57:10.257Z,20.98
2022-08-21T19:59:38.723Z,21.00
2022-08-21T20:02:07.328Z,20.94
2022-08-21T20:04:33.976Z,20.90
2022-08-21T20:07:00.911Z,20.91
2022-08-21T20:09:27.988Z,20.78
2022-08-21T20:11:58.191Z,20.58
2022-08-21T20:14:30.495Z,20.54
2022-08-21T20:17:06.367Z,20.67
2022-08-21T20:19:35.612Z,20.49
2022-08-21T20:22:06.217Z,20.41
2022-08-21T20:24:36.445Z,20.49
2022-08-21T20:27:08.006Z,20.60
2022-08-21T20:29:42.666Z,20.61
2022-08-21T20:32:11.953Z,20.53
2022-08-21T20:34:45.090Z,20.56
2022-08-21T20:37:22.224Z,20.48
2022-08-21T20:40:01.505Z,20.36
2022-08-21T20:42:30.140Z,20.38
2022-08-21T20:44:57.977Z,20.42
2022-08-21T20:47:26.057Z,20.45
2022-08-21T20:50:02.379Z,20.40
2022-08-21T20:52:34.054Z,20.42
2022-08-21T20:55:10.028Z,20.49
2022-08-21T20:58:05.639Z,20.47
2022-08-21T21:00:41.186Z,20.55
2022-08-21T21:03:15.407Z,20.52
2022-08-21T21:06:07.866Z,20.52
2022-08-21T21:08:46.993Z,20.48
2022-08-21T21:11:38.383Z,20.47
2022-08-21T21:14:15.237Z,20.49
2022-08-21T21:16:51.017Z,20.48
2022-08-21T21:19:24.204Z,20.50
2022-08-21T21:22:05.176Z,20.50
2022-08-21T21:25:08.925Z,20.48
2022-08-21T21:33:31.246Z,20.38
2022-08-21T21:36:16.437Z,20.44
2022-08-21T21:39:11.235Z,20.37
2022-08-21T21:41:49.306Z,20.30
2022-08-21T21:45:12.356Z,20.24
2022-08-21T21:48:16.719Z,20.19
2022-08-21T21:51:12.159Z,20.24
2022-08-21T21:53:54.762Z,20.25
2022-08-21T21:56:34.099Z,20.20
2022-08-21T21:59:08.263Z,20.23
2022-08-21T22:01:51.337Z,20.20
2022-08-21T22:04:35.229Z,20.18
2022-08-21T22:07:21.087Z,20.06
2022-08-21T22:10:18.585Z,20.06
2022-08-21T22:13:09.688Z,20.02
2022-08-21T22:15:37.583Z,19.99
2022-08-21T22:18:16.182Z,19.93
2022-08-21T22:21:23.919Z,20.00
2022-08-21T22:23:55.736Z,20.00
2022-08-21T22:26:53.837Z,20.00
2022-08-21T22:29:23.392Z,19.85
2022-08-21T22:32:07.616Z,19.97
2022-08-21T22:34:34.701Z,19.97
2022-08-21T22:37:05.432Z,19.90
2022-08-21T22:39:43.989Z,19.84
2022-08-21T22:45:21.621Z,19.82
2022-08-21T22:47:51.642Z,19.72
2022-08-21T22:50:26.868Z,19.73
2022-08-21T22:53:00.506Z,19.77
2022-08-21T22:55:43.766Z,19.73
2022-08-21T22:58:22.618Z,19.65
2022-08-21T23:01:05.295Z,19.56
2022-08-21T23:03:51.725Z,19.57
2022-08-21T23:06:30.079Z,19.55
2022-08-21T23:08:58.437Z,19.45
2022-08-21T23:11:39.845Z,19.37
2022-08-21T23:14:07.758Z,19.29
2022-08-21T23:16:47.467Z,19.31
2022-08-21T23:19:38.069Z,19.27
2022-08-21T23:22:28.873Z,19.19
2022-08-21T23:25:18.783Z,19.10
2022-08-21T23:27:54.137Z,19.06
2022-08-21T23:30:42.937Z,18.96
2022-08-21T23:33:38.985Z,18.87
2022-08-21T23:36:47.749Z,18.78
2022-08-21T23:39:51.619Z,18.69
2022-08-21T23:42:26.169Z,18.66
2022-08-21T23:45:32.870Z,18.60
2022-08-21T23:48:30.244Z,18.55
2022-08-21T23:51:23.591Z,18.53
2022-08-21T23:54:22.570Z,18.53
2022-08-21T23:57:13.184Z,18.59
2022-08-21T23:59:47.245Z,18.65
